createdAt,value
2023-05-09T00:00:32.642Z,27.17
2023-05-09T00:03:02.712Z,27.15
2023-05-09T00:05:32.427Z,27.16
2023-05-09T00:08:02.392Z,27.16
2023-05-09T00:10:34.941Z,27.16
2023-05-09T00:13:05.316Z,27.15
2023-05-09T00:15:35.069Z,27.14
2023-05-09T00:18:05.181Z,27.15
2023-05-09T00:20:36.584Z,27.15
2023-05-09T00:23:07.386Z,27.15
2023-05-09T00:25:39.399Z,27.14
2023-05-09T00:28:09.322Z,27.13
2023-05-09T00:30:39.805Z,27.14
2023-05-09T00:33:09.418Z,27.14
2023-05-09T00:35:39.422Z,27.12
2023-05-09T00:38:10.008Z,27.13
2023-05-09T00:40:41.914Z,27.13
2023-05-09T00:43:12.305Z,27.12
2023-05-09T00:45:42.781Z,27.13
2023-05-09T00:48:13.378Z,27.12
2023-05-09T00:50:44.269Z,27.11
2023-05-09T00:53:15.694Z,27.12
2023-05-09T00:55:48.304Z,27.10
2023-05-09T00:58:19.759Z,27.11
2023-05-09T01:00:53.153Z,27.09
2023-05-09T01:03:23.306Z,27.09
2023-05-09T01:06:05.059Z,27.08
2023-05-09T01:08:49.504Z,27.08
2023-05-09T01:11:34.513Z,27.07
2023-05-09T01:14:18.548Z,27.07
2023-05-09T01:16:58.508Z,27.06
2023-05-09T01:19:54.565Z,27.03
2023-05-09T01:22:30.156Z,27.02
2023-05-09T01:25:51.833Z,27.00
2023-05-09T01:29:04.023Z,26.98
2023-05-09T01:31:43.065Z,26.96
2023-05-09T01:34:17.349Z,26.96
2023-05-09T01:36:52.379Z,26.96
2023-05-09T01:39:33.797Z,26.96
2023-05-09T01:42:09.159Z,26.95
2023-05-09T01:44:43.023Z,26.95
2023-05-09T01:47:16.925Z,26.94
2023-05-09T01:49:50.299Z,26.93
2023-05-09T01:52:24.002Z,26.94
2023-05-09T01:54:54.498Z,26.92
2023-05-09T01:57:26.881Z,26.91
2023-05-09T01:59:58.832Z,26.89
2023-05-09T02:02:32.202Z,26.87
2023-05-09T02:05:04.791Z,26.88
2023-05-09T02:07:37.516Z,26.86
2023-05-09T02:10:11.839Z,26.85
2023-05-09T02:12:43.403Z,26.84
2023-05-09T02:15:14.503Z,26.82
2023-05-09T02:17:47.096Z,26.83
2023-05-09T02:20:17.486Z,26.81
2023-05-09T02:22:48.853Z,26.81
2023-05-09T02:25:19.952Z,26.79
2023-05-09T02:27:50.645Z,26.77
2023-05-09T02:30:26.523Z,26.76
2023-05-09T02:33:04.322Z,26.76
2023-05-09T02:35:35.245Z,26.75
2023-05-09T02:38:05.454Z,26.73
2023-05-09T02:40:37.171Z,26.74
2023-05-09T02:43:07.565Z,26.72
2023-05-09T02:45:37.943Z,26.71
2023-05-09T02:48:11.793Z,26.70
2023-05-09T02:50:43.385Z,26.68
2023-05-09T02:53:14.271Z,26.66
2023-05-09T02:55:44.377Z,26.64
2023-05-09T02:58:15.151Z,26.61
2023-05-09T03:00:46.025Z,26.60
2023-05-09T03:03:19.538Z,26.59
2023-05-09T03:05:49.913Z,26.58
2023-05-09T03:08:20.266Z,26.56
2023-05-09T03:10:51.548Z,26.54
2023-05-09T03:13:22.203Z,26.52
2023-05-09T03:15:53.089Z,26.51
2023-05-09T03:18:25.531Z,26.51
2023-05-09T03:20:55.978Z,26.48
2023-05-09T03:23:26.086Z,26.47
2023-05-09T03:25:56.037Z,26.45
2023-05-09T03:28:26.330Z,26.44
2023-05-09T03:30:56.571Z,26.43
2023-05-09T03:33:28.464Z,26.42
2023-05-09T03:35:58.581Z,26.42
2023-05-09T03:38:28.895Z,26.41
2023-05-09T03:40:59.536Z,26.41
2023-05-09T03:43:29.646Z,26.41
2023-05-09T03:46:00.128Z,26.40
2023-05-09T03:48:32.099Z,26.39
2023-05-09T03:51:03.572Z,26.39
2023-05-09T03:53:33.927Z,26.38
2023-05-09T03:56:04.544Z,26.39
2023-05-09T03:58:35.026Z,26.39
2023-05-09T04:01:05.525Z,26.40
2023-05-09T04:03:38.610Z,26.39
2023-05-09T04:06:09.857Z,26.39
2023-05-09T04:08:40.048Z,26.39
2023-05-09T04:11:10.442Z,26.38
2023-05-09T04:13:40.256Z,26.36
2023-05-09T04:16:10.672Z,26.35
2023-05-09T04:18:43.230Z,26.34
2023-05-09T04:21:13.487Z,26.31
2023-05-09T04:23:44.074Z,26.30
2023-05-09T04:26:16.129Z,26.28
2023-05-09T04:28:46.671Z,26.29
2023-05-09T04:31:16.590Z,26.29
2023-05-09T04:33:48.489Z,26.30
2023-05-09T04:36:18.752Z,26.31
2023-05-09T04:38:49.353Z,26.31
2023-05-09T04:41:19.822Z,26.32
2023-05-09T04:43:49.893Z,26.33
2023-05-09T04:46:20.356Z,26.35
2023-05-09T04:48:52.683Z,26.38
2023-05-09T04:51:22.575Z,26.41
2023-05-09T04:53:53.428Z,26.44
2023-05-09T04:56:24.145Z,26.48
2023-05-09T04:58:54.039Z,26.50
2023-05-09T05:01:23.865Z,26.53
2023-05-09T05:03:56.103Z,26.55
2023-05-09T05:06:26.531Z,26.56
2023-05-09T05:08:56.653Z,26.59
2023-05-09T05:11:26.938Z,26.60
2023-05-09T05:13:57.136Z,26.63
2023-05-09T05:16:27.261Z,26.67
2023-05-09T05:18:59.679Z,26.70
2023-05-09T05:21:30.027Z,26.73
2023-05-09T05:23:59.688Z,26.75
2023-05-09T05:26:30.426Z,26.77
2023-05-09T05:29:01.361Z,26.80
2023-05-09T05:31:31.701Z,26.82
2023-05-09T05:34:04.359Z,26.83
2023-05-09T05:36:34.547Z,26.85
2023-05-09T05:39:04.970Z,26.89
2023-05-09T05:41:35.272Z,26.92
2023-05-09T05:44:05.242Z,26.96
2023-05-09T05:46:35.038Z,27.00
2023-05-09T05:49:06.526Z,27.05
2023-05-09T05:51:36.377Z,27.06
2023-05-09T05:54:07.000Z,27.10
2023-05-09T05:56:37.045Z,27.13
2023-05-09T05:59:07.421Z,27.17
2023-05-09T06:01:37.351Z,27.20
2023-05-09T06:04:09.835Z,27.26
2023-05-09T06:06:40.529Z,27.30
2023-05-09T06:09:10.784Z,27.36
2023-05-09T06:11:41.074Z,27.43
2023-05-09T06:14:11.405Z,27.49
2023-05-09T06:16:41.852Z,27.55
2023-05-09T06:19:14.508Z,27.62
2023-05-09T06:21:45.147Z,27.67
2023-05-09T06:24:27.591Z,27.71
2023-05-09T06:27:05.609Z,27.75
2023-05-09T06:29:36.139Z,27.79
2023-05-09T06:32:06.936Z,27.82
2023-05-09T06:34:48.585Z,27.86
2023-05-09T06:37:18.593Z,27.89
2023-05-09T06:39:48.926Z,27.92
2023-05-09T06:42:19.425Z,27.93
2023-05-09T06:44:49.850Z,27.97
2023-05-09T06:47:20.219Z,27.99
2023-05-09T06:49:52.630Z,28.01
2023-05-09T06:52:23.021Z,28.02
2023-05-09T06:54:54.187Z,28.05
2023-05-09T06:57:24.302Z,28.10
2023-05-09T06:59:54.288Z,28.14
2023-05-09T07:02:24.953Z,28.19
2023-05-09T07:04:57.163Z,28.24
2023-05-09T07:07:27.925Z,28.29
2023-05-09T07:10:09.963Z,28.35
2023-05-09T07:12:41.956Z,28.42
2023-05-09T07:15:14.666Z,28.46
2023-05-09T07:17:48.124Z,28.53
2023-05-09T07:20:20.795Z,28.59
2023-05-09T07:22:51.126Z,28.63
2023-05-09T07:25:21.749Z,28.69
2023-05-09T07:27:51.706Z,28.74
2023-05-09T07:30:22.136Z,28.80
2023-05-09T07:32:52.766Z,28.84
2023-05-09T07:35:25.582Z,28.89
2023-05-09T07:37:55.263Z,28.93
2023-05-09T07:40:25.773Z,28.97
2023-05-09T07:42:57.212Z,29.00
2023-05-09T07:45:27.614Z,29.04
2023-05-09T07:47:58.284Z,29.08
2023-05-09T07:50:30.791Z,29.12
2023-05-09T07:53:00.992Z,29.16
2023-05-09T07:55:31.402Z,29.19
2023-05-09T07:58:01.155Z,29.23
2023-05-09T08:00:31.640Z,29.27
2023-05-09T08:03:02.510Z,29.31
2023-05-09T08:05:35.228Z,29.33
2023-05-09T08:08:05.885Z,29.35
2023-05-09T08:10:35.832Z,29.39
2023-05-09T08:13:05.638Z,29.42
2023-05-09T08:15:36.151Z,29.45
2023-05-09T08:18:06.859Z,29.48
2023-05-09T08:20:39.337Z,29.53
2023-05-09T08:23:09.897Z,29.54
2023-05-09T08:25:40.413Z,29.58
2023-05-09T08:28:10.477Z,29.61
2023-05-09T08:30:41.090Z,29.63
2023-05-09T08:33:11.627Z,29.67
2023-05-09T08:35:43.465Z,29.70
2023-05-09T08:38:13.669Z,29.73
2023-05-09T08:40:44.631Z,29.75
2023-05-09T08:43:15.268Z,29.78
2023-05-09T08:45:50.802Z,29.82
2023-05-09T08:48:22.377Z,29.84
2023-05-09T08:51:04.435Z,29.89
2023-05-09T08:53:35.012Z,29.90
2023-05-09T08:56:06.842Z,29.92
2023-05-09T08:58:38.337Z,29.95
2023-05-09T09:01:09.502Z,29.98
2023-05-09T09:03:40.638Z,30.00
2023-05-09T09:06:13.969Z,30.02
2023-05-09T09:08:45.027Z,30.04
2023-05-09T09:11:18.993Z,30.06
2023-05-09T09:13:52.030Z,30.09
2023-05-09T09:16:25.594Z,30.11
2023-05-09T09:18:59.069Z,30.13
2023-05-09T09:21:48.873Z,30.15
2023-05-09T09:24:25.187Z,30.15
2023-05-09T09:26:55.806Z,30.16
2023-05-09T09:29:29.016Z,30.17
2023-05-09T09:31:59.227Z,30.18
2023-05-09T09:34:29.747Z,30.20
2023-05-09T09:37:01.839Z,30.20
2023-05-09T09:39:32.188Z,30.20
2023-05-09T09:42:14.211Z,30.21
2023-05-09T09:44:44.856Z,30.20
2023-05-09T09:47:15.030Z,30.20
2023-05-09T09:49:49.075Z,30.21
2023-05-09T09:52:29.910Z,30.21
2023-05-09T09:55:00.121Z,30.20
2023-05-09T09:57:37.756Z,30.23
2023-05-09T10:00:09.698Z,30.23
2023-05-09T10:02:51.417Z,30.24
2023-05-09T10:05:24.858Z,30.23
2023-05-09T10:07:59.337Z,30.25
2023-05-09T10:10:32.258Z,30.26
2023-05-09T10:13:06.925Z,30.26
2023-05-09T10:15:52.187Z,30.27
2023-05-09T10:18:31.274Z,30.27
2023-05-09T10:21:04.552Z,30.29
2023-05-09T10:23:43.081Z,30.30
2023-05-09T10:26:27.862Z,30.30
2023-05-09T10:29:00.755Z,30.31
2023-05-09T10:31:34.679Z,30.31
2023-05-09T10:34:12.506Z,30.32
2023-05-09T10:36:42.905Z,30.31
2023-05-09T10:39:15.951Z,30.31
2023-05-09T10:41:47.061Z,30.32
2023-05-09T10:44:17.517Z,30.32
2023-05-09T10:46:47.932Z,30.32
2023-05-09T10:49:18.608Z,30.32
2023-05-09T10:51:48.762Z,30.32
2023-05-09T10:54:31.805Z,30.33
2023-05-09T10:57:02.464Z,30.31
2023-05-09T10:59:40.744Z,30.32
2023-05-09T11:02:18.388Z,30.31
2023-05-09T11:04:54.430Z,30.31
2023-05-09T11:07:30.885Z,30.31
2023-05-09T11:10:17.494Z,30.31
2023-05-09T11:12:59.220Z,30.29
2023-05-09T11:15:29.534Z,30.29
2023-05-09T11:18:10.158Z,30.30
2023-05-09T11:20:46.799Z,30.28
2023-05-09T11:23:20.724Z,30.26
2023-05-09T11:25:53.759Z,30.25
2023-05-09T11:28:31.862Z,30.24
2023-05-09T11:31:14.436Z,30.22
2023-05-09T11:33:47.246Z,30.22
2023-05-09T11:36:25.804Z,30.20
2023-05-09T11:39:08.934Z,30.19
2023-05-09T11:41:49.449Z,30.18
2023-05-09T11:44:21.208Z,30.17
2023-05-09T11:46:52.817Z,30.17
2023-05-09T11:49:23.238Z,30.16
2023-05-09T11:51:53.707Z,30.15
2023-05-09T11:54:26.940Z,30.16
2023-05-09T11:57:02.168Z,30.16
2023-05-09T11:59:32.751Z,30.14
2023-05-09T12:02:08.010Z,30.14
2023-05-09T12:04:39.808Z,30.14
2023-05-09T12:07:10.346Z,30.14
2023-05-09T12:09:40.433Z,30.15
2023-05-09T12:12:18.676Z,30.14
2023-05-09T12:14:51.239Z,30.14
2023-05-09T12:17:22.001Z,30.13
2023-05-09T12:19:52.112Z,30.11
2023-05-09T12:22:22.334Z,30.11
2023-05-09T12:24:52.907Z,30.10
2023-05-09T12:27:26.940Z,30.11
2023-05-09T12:29:58.138Z,30.10
2023-05-09T12:32:32.162Z,30.10
2023-05-09T12:35:03.742Z,30.10
2023-05-09T12:37:34.647Z,30.10
2023-05-09T12:40:06.600Z,30.10
2023-05-09T12:42:39.736Z,30.10
2023-05-09T12:45:12.863Z,30.10
2023-05-09T12:47:43.763Z,30.08
2023-05-09T12:50:14.904Z,30.08
2023-05-09T12:53:02.110Z,30.07
2023-05-09T12:55:33.316Z,30.05
2023-05-09T12:58:06.437Z,30.04
2023-05-09T13:00:46.678Z,30.03
2023-05-09T13:03:30.131Z,30.02
2023-05-09T13:06:02.323Z,29.99
2023-05-09T13:08:34.970Z,30.00
2023-05-09T13:11:15.638Z,29.98
2023-05-09T13:13:48.575Z,29.96
2023-05-09T13:16:18.800Z,29.96
2023-05-09T13:18:52.001Z,29.94
2023-05-09T13:21:22.206Z,29.93
2023-05-09T13:23:52.710Z,29.91
2023-05-09T13:26:22.967Z,29.91
2023-05-09T13:28:55.287Z,29.91
2023-05-09T13:31:26.827Z,29.90
2023-05-09T13:33:56.810Z,29.89
2023-05-09T13:36:26.532Z,29.90
2023-05-09T13:38:56.938Z,29.89
2023-05-09T13:41:27.664Z,29.88
2023-05-09T13:44:00.212Z,29.85
2023-05-09T13:46:30.775Z,29.83
2023-05-09T13:49:02.267Z,29.80
2023-05-09T13:51:33.015Z,29.79
2023-05-09T13:54:12.936Z,29.78
2023-05-09T13:56:43.664Z,29.76
2023-05-09T13:59:15.470Z,29.75
2023-05-09T14:01:46.048Z,29.73
2023-05-09T14:04:16.521Z,29.70
2023-05-09T14:06:48.683Z,29.69
2023-05-09T14:09:19.934Z,29.67
2023-05-09T14:11:51.223Z,29.65
2023-05-09T14:14:24.600Z,29.65
2023-05-09T14:16:55.264Z,29.62
2023-05-09T14:19:25.491Z,29.60
2023-05-09T14:21:55.873Z,29.58
2023-05-09T14:24:26.630Z,29.57
2023-05-09T14:26:56.883Z,29.54
2023-05-09T14:29:29.225Z,29.54
2023-05-09T14:31:59.790Z,29.51
2023-05-09T14:34:30.305Z,29.50
2023-05-09T14:37:00.635Z,29.48
2023-05-09T14:39:30.861Z,29.47
2023-05-09T14:42:01.011Z,29.46
2023-05-09T14:44:32.883Z,29.46
2023-05-09T14:47:03.216Z,29.44
2023-05-09T14:49:33.707Z,29.43
2023-05-09T14:52:04.145Z,29.41
2023-05-09T14:54:34.018Z,29.40
2023-05-09T14:57:05.750Z,29.41
2023-05-09T14:59:38.345Z,29.39
2023-05-09T15:02:09.286Z,29.38
2023-05-09T15:04:39.006Z,29.36
2023-05-09T15:07:09.261Z,29.35
2023-05-09T15:09:40.036Z,29.34
2023-05-09T15:12:11.315Z,29.33
2023-05-09T15:14:43.712Z,29.32
2023-05-09T15:17:13.658Z,29.31
2023-05-09T15:19:43.904Z,29.30
2023-05-09T15:22:14.380Z,29.28
2023-05-09T15:24:44.647Z,29.27
2023-05-09T15:27:14.837Z,29.26
2023-05-09T15:29:47.119Z,29.25
2023-05-09T15:32:17.234Z,29.23
2023-05-09T15:34:47.784Z,29.22
2023-05-09T15:37:18.083Z,29.21
2023-05-09T15:39:48.282Z,29.20
2023-05-09T15:42:19.594Z,29.19
2023-05-09T15:44:52.029Z,29.19
2023-05-09T15:47:22.072Z,29.17
2023-05-09T15:49:52.491Z,29.16
2023-05-09T15:52:22.811Z,29.14
2023-05-09T15:54:52.833Z,29.13
2023-05-09T15:57:23.196Z,29.11
2023-05-09T15:59:56.870Z,29.11
2023-05-09T16:02:27.782Z,29.09
2023-05-09T16:04:58.181Z,29.06
2023-05-09T16:07:28.468Z,29.07
2023-05-09T16:09:59.369Z,29.06
2023-05-09T16:12:30.002Z,29.04
2023-05-09T16:15:02.789Z,29.03
2023-05-09T16:17:34.067Z,29.00
2023-05-09T16:20:04.268Z,28.99
2023-05-09T16:22:34.227Z,28.97
2023-05-09T16:25:04.726Z,28.96
2023-05-09T16:27:34.482Z,28.95
2023-05-09T16:30:08.168Z,28.94
2023-05-09T16:32:38.758Z,28.92
2023-05-09T16:35:11.144Z,28.91
2023-05-09T16:37:41.478Z,28.89
2023-05-09T16:40:13.576Z,28.87
2023-05-09T16:42:44.093Z,28.85
2023-05-09T16:45:16.892Z,28.84
2023-05-09T16:47:47.412Z,28.83
2023-05-09T16:50:17.981Z,28.80
2023-05-09T16:52:50.787Z,28.79
2023-05-09T16:55:21.267Z,28.78
2023-05-09T16:57:51.925Z,28.77
2023-05-09T17:00:27.298Z,28.77
2023-05-09T17:02:57.895Z,28.74
2023-05-09T17:05:29.810Z,28.74
2023-05-09T17:08:00.382Z,28.73
2023-05-09T17:10:30.890Z,28.70
2023-05-09T17:13:00.868Z,28.70
2023-05-09T17:15:34.745Z,28.67
2023-05-09T17:18:05.431Z,28.66
2023-05-09T17:20:35.968Z,28.64
2023-05-09T17:23:06.583Z,28.63
2023-05-09T17:25:36.534Z,28.62
2023-05-09T17:28:06.745Z,28.61
2023-05-09T17:30:39.997Z,28.60
2023-05-09T17:33:10.545Z,28.57
2023-05-09T17:35:40.587Z,28.58
2023-05-09T17:38:10.515Z,28.56
2023-05-09T17:40:45.793Z,28.55
2023-05-09T17:43:16.154Z,28.53
2023-05-09T17:45:48.810Z,28.52
2023-05-09T17:48:18.967Z,28.51
2023-05-09T17:50:49.768Z,28.51
2023-05-09T17:53:20.352Z,28.49
2023-05-09T17:55:50.296Z,28.48
2023-05-09T17:58:21.272Z,28.47
2023-05-09T18:00:58.968Z,28.46
2023-05-09T18:03:29.889Z,28.45
2023-05-09T18:06:00.701Z,28.44
2023-05-09T18:08:31.547Z,28.42
2023-05-09T18:11:02.975Z,28.41
2023-05-09T18:13:33.856Z,28.41
2023-05-09T18:16:07.035Z,28.39
2023-05-09T18:18:37.531Z,28.38
2023-05-09T18:21:08.513Z,28.37
2023-05-09T18:23:38.616Z,28.36
2023-05-09T18:26:08.656Z,28.35
2023-05-09T18:28:41.363Z,28.34
2023-05-09T18:31:14.443Z,28.33
2023-05-09T18:33:44.468Z,28.32
2023-05-09T18:36:15.885Z,28.31
2023-05-09T18:38:48.146Z,28.29
2023-05-09T18:41:18.667Z,28.28
2023-05-09T18:43:49.028Z,28.28
2023-05-09T18:46:22.203Z,28.25
2023-05-09T18:48:54.249Z,28.24
2023-05-09T18:51:24.592Z,28.23
2023-05-09T18:53:54.676Z,28.23
2023-05-09T18:56:25.894Z,28.22
2023-05-09T18:58:56.131Z,28.21
2023-05-09T19:01:28.510Z,28.20
2023-05-09T19:03:58.722Z,28.19
2023-05-09T19:06:29.919Z,28.17
2023-05-09T19:09:00.023Z,28.16
2023-05-09T19:11:30.105Z,28.15
2023-05-09T19:13:59.989Z,28.14
2023-05-09T19:16:32.246Z,28.13
2023-05-09T19:19:03.307Z,28.11
2023-05-09T19:21:34.856Z,28.10
2023-05-09T19:24:06.704Z,28.07
2023-05-09T19:26:36.258Z,28.06
2023-05-09T19:29:08.498Z,28.04
2023-05-09T19:31:40.764Z,28.03
2023-05-09T19:34:11.078Z,28.02
2023-05-09T19:36:41.442Z,28.00
2023-05-09T19:39:11.905Z,28.00
2023-05-09T19:41:42.416Z,27.99
2023-05-09T19:44:12.829Z,27.97
2023-05-09T19:46:45.169Z,27.97
2023-05-09T19:49:17.941Z,27.96
2023-05-09T19:51:48.346Z,27.95
2023-05-09T19:54:20.034Z,27.95
2023-05-09T19:56:49.856Z,27.93
2023-05-09T19:59:19.508Z,27.94
2023-05-09T20:01:51.974Z,27.94
2023-05-09T20:04:22.821Z,27.93
2023-05-09T20:06:53.546Z,27.93
2023-05-09T20:09:23.776Z,27.92
2023-05-09T20:11:54.028Z,27.92
2023-05-09T20:14:24.218Z,27.91
2023-05-09T20:16:56.358Z,27.90
2023-05-09T20:19:26.689Z,27.89
2023-05-09T20:21:56.810Z,27.89
2023-05-09T20:24:27.129Z,27.89
2023-05-09T20:26:57.176Z,27.88
2023-05-09T20:29:28.194Z,27.87
2023-05-09T20:32:00.321Z,27.86
2023-05-09T20:34:30.641Z,27.86
2023-05-09T20:37:00.531Z,27.85
2023-05-09T20:39:30.905Z,27.85
2023-05-09T20:42:02.691Z,27.84
2023-05-09T20:44:33.137Z,27.83
2023-05-09T20:47:05.082Z,27.82
2023-05-09T20:49:34.861Z,27.82
2023-05-09T20:52:04.987Z,27.82
2023-05-09T20:54:35.151Z,27.81
2023-05-09T20:57:05.819Z,27.80
2023-05-09T20:59:36.251Z,27.79
2023-05-09T21:02:08.713Z,27.78
2023-05-09T21:04:38.819Z,27.76
2023-05-09T21:07:10.315Z,27.76
2023-05-09T21:09:40.206Z,27.74
2023-05-09T21:12:11.226Z,27.73
2023-05-09T21:14:41.401Z,27.72
2023-05-09T21:17:13.896Z,27.71
2023-05-09T21:19:44.120Z,27.69
2023-05-09T21:22:13.748Z,27.68
2023-05-09T21:24:43.755Z,27.66
2023-05-09T21:27:13.635Z,27.65
2023-05-09T21:29:43.642Z,27.65
2023-05-09T21:32:15.223Z,27.64
2023-05-09T21:34:45.787Z,27.65
2023-05-09T21:37:15.707Z,27.65
2023-05-09T21:39:45.909Z,27.65
2023-05-09T21:42:15.433Z,27.66
2023-05-09T21:44:45.668Z,27.65
2023-05-09T21:47:18.161Z,27.67
2023-05-09T21:49:48.636Z,27.66
2023-05-09T21:52:18.764Z,27.66
2023-05-09T21:54:48.827Z,27.66
2023-05-09T21:57:19.067Z,27.66
2023-05-09T21:59:49.352Z,27.64
2023-05-09T22:02:21.366Z,27.66
2023-05-09T22:04:51.600Z,27.64
2023-05-09T22:07:21.813Z,27.65
2023-05-09T22:09:51.977Z,27.64
2023-05-09T22:12:23.416Z,27.65
2023-05-09T22:14:56.686Z,27.65
2023-05-09T22:17:29.987Z,27.66
2023-05-09T22:19:59.673Z,27.66
2023-05-09T22:22:30.063Z,27.66
2023-05-09T22:25:00.306Z,27.65
2023-05-09T22:27:30.639Z,27.67
2023-05-09T22:30:00.595Z,27.66
2023-05-09T22:32:32.653Z,27.68
2023-05-09T22:35:02.908Z,27.67
2023-05-09T22:37:33.173Z,27.67
2023-05-09T22:40:03.597Z,27.66
2023-05-09T22:42:35.151Z,27.65
2023-05-09T22:45:06.112Z,27.66
2023-05-09T22:47:38.669Z,27.67
2023-05-09T22:50:10.996Z,27.66
2023-05-09T22:52:41.329Z,27.66
2023-05-09T22:55:11.781Z,27.65
2023-05-09T22:57:42.503Z,27.67
2023-05-09T23:00:14.704Z,27.65
2023-05-09T23:02:47.072Z,27.65
2023-05-09T23:05:17.322Z,27.64
2023-05-09T23:07:48.041Z,27.64
2023-05-09T23:10:19.121Z,27.63
2023-05-09T23:12:49.033Z,27.63
2023-05-09T23:15:19.433Z,27.63
2023-05-09T23:17:51.616Z,27.63
2023-05-09T23:20:21.699Z,27.62
2023-05-09T23:22:51.646Z,27.61
2023-05-09T23:25:22.118Z,27.61
2023-05-09T23:27:52.222Z,27.61
2023-05-09T23:30:22.666Z,27.60
2023-05-09T23:32:54.960Z,27.60
2023-05-09T23:35:26.612Z,27.60
2023-05-09T23:37:56.798Z,27.60
2023-05-09T23:40:27.288Z,27.60
2023-05-09T23:42:57.262Z,27.59
2023-05-09T23:45:27.958Z,27.59
2023-05-09T23:48:00.192Z,27.58
2023-05-09T23:50:30.682Z,27.58
2023-05-09T23:53:00.992Z,27.58
2023-05-09T23:55:31.001Z,27.58
2023-05-09T23:58:02.866Z,27.58
